Time;durP1;ratioP1;P1;durP2;ratioP2;P2;SDS_P1;SDS_P2;PMS_P1;PMS_P2;Temp;Humidity;BMP_temperature;BMP_pressure;BME280_temperature;BME280_humidity;BME280_pressure;Samples;Min_cycle;Max_cycle;Signal;HPM_P1;HPM_P2
2023/04/12 00:00:38;;;;;;;9.95;2.63;;;;;;;-143.48;93.12;118439.88;5053097;28;20030;-68
2023/04/12 00:03:06;;;;;;;11.15;2.70;;;;;;;-143.48;93.05;118439.88;5053203;28;20551;-69
2023/04/12 00:05:33;;;;;;;7.32;2.45;;;;;;;-143.48;93.79;118439.88;5052914;28;20104;-68
2023/04/12 00:08:01;;;;;;;10.43;2.60;;;;;;;-143.48;94.27;118439.88;5053097;28;20044;-67
2023/04/12 00:10:26;;;;;;;6.78;2.45;;;;;;;-143.48;94.36;118439.88;5035065;28;20045;-67
2023/04/12 00:12:51;;;;;;;9.40;2.63;;;;;;;-143.48;94.84;118439.88;5053198;28;20431;-68
2023/04/12 00:15:17;;;;;;;8.57;2.83;;;;;;;-143.48;95.87;118439.88;5052948;28;20020;-67
2023/04/12 00:17:43;;;;;;;8.02;2.20;;;;;;;-143.48;96.07;118439.88;5053044;28;20040;-68
2023/04/12 00:20:12;;;;;;;5.35;2.40;;;;;;;-143.48;96.52;118439.88;5052927;28;20112;-68
2023/04/12 00:22:38;;;;;;;6.63;1.98;;;;;;;-143.48;96.54;118439.88;5053180;28;20025;-68
2023/04/12 00:25:04;;;;;;;4.35;2.20;;;;;;;-143.48;96.70;118439.88;5035066;28;20429;-67
2023/04/12 00:27:30;;;;;;;12.82;3.05;;;;;;;-143.48;97.73;118439.88;5035423;28;20182;-67
2023/04/12 00:29:55;;;;;;;6.40;2.45;;;;;;;-143.48;98.06;118439.88;5052892;28;20055;-69
2023/04/12 00:32:20;;;;;;;14.88;3.03;;;;;;;-143.48;98.35;118439.88;5052812;28;20059;-68
2023/04/12 00:34:46;;;;;;;14.25;3.05;;;;;;;-143.48;98.25;118439.88;5054858;28;20017;-68
2023/04/12 00:37:11;;;;;;;10.95;2.40;;;;;;;-143.48;98.90;118439.88;5056687;28;20036;-67
2023/04/12 00:39:36;;;;;;;6.45;2.35;;;;;;;-143.48;98.97;118439.88;5056645;28;20025;-68
2023/04/12 00:42:03;;;;;;;5.22;1.95;;;;;;;-143.48;99.40;118439.88;5038403;28;20535;-69
2023/04/12 00:44:29;;;;;;;6.72;1.70;;;;;;;-143.48;99.53;118439.88;5056622;28;20031;-68
2023/04/12 00:46:57;;;;;;;10.55;2.25;;;;;;;-143.48;100.00;118439.88;5056466;28;20021;-67
2023/04/12 00:49:22;;;;;;;6.72;2.20;;;;;;;-143.48;100.00;118439.88;5056291;28;20055;-69
2023/04/12 00:51:48;;;;;;;8.20;2.00;;;;;;;-143.48;100.00;118439.88;5056242;28;20056;-67
2023/04/12 00:54:16;;;;;;;3.75;1.77;;;;;;;-143.48;99.76;118439.88;5056448;28;20123;-67
2023/04/12 00:56:43;;;;;;;7.75;2.20;;;;;;;-143.48;99.91;118439.88;5038458;28;20108;-67
2023/04/12 00:59:09;;;;;;;5.55;1.90;;;;;;;-143.48;99.71;118439.88;5038252;28;20021;-68
2023/04/12 01:01:34;;;;;;;3.33;1.60;;;;;;;-143.48;99.72;118439.88;5056141;28;20394;-68
2023/04/12 01:03:59;;;;;;;6.97;1.80;;;;;;;-143.48;99.92;118439.88;5038215;28;20369;-68
2023/04/12 01:06:37;;;;;;;4.75;1.70;;;;;;;-143.48;100.00;118439.88;5056256;28;20040;-67
2023/04/12 01:09:10;;;;;;;6.13;1.80;;;;;;;-143.48;99.85;118439.88;5056113;28;20523;-68
2023/04/12 01:11:53;;;;;;;6.68;1.60;;;;;;;-143.48;99.45;118439.88;5038172;28;20049;-67
2023/04/12 01:14:31;;;;;;;2.97;1.50;;;;;;;-143.48;100.00;118439.88;5056073;28;20484;-69
2023/04/12 01:17:03;;;;;;;6.63;1.60;;;;;;;-143.48;99.79;118439.88;5055914;28;20025;-68
2023/04/12 01:19:44;;;;;;;6.75;2.03;;;;;;;-143.48;99.84;118439.88;5038013;28;20025;-69
2023/04/12 01:22:15;;;;;;;3.38;1.33;;;;;;;-143.48;100.00;118439.88;5055769;28;20112;-68
2023/04/12 01:25:02;;;;;;;6.45;1.70;;;;;;;-143.48;100.00;118439.88;5055758;28;20472;-68
2023/04/12 01:27:37;;;;;;;4.45;1.50;;;;;;;-143.48;100.00;118439.88;5038110;28;20029;-68
2023/04/12 01:30:06;;;;;;;3.33;1.50;;;;;;;-143.48;100.00;118439.88;5055727;28;20029;-67
2023/04/12 01:32:34;;;;;;;7.15;1.88;;;;;;;-143.48;100.00;118439.88;5055583;28;20029;-68
2023/04/12 01:35:01;;;;;;;8.23;1.88;;;;;;;-143.48;100.00;118439.88;5037837;28;20468;-67
2023/04/12 01:37:28;;;;;;;4.25;1.60;;;;;;;-143.48;100.00;118439.88;5055429;28;20021;-68
2023/04/12 01:39:53;;;;;;;3.50;1.75;;;;;;;-143.48;99.79;118439.88;5055556;28;20029;-67
2023/04/12 01:42:20;;;;;;;6.60;1.98;;;;;;;-143.48;100.00;118439.88;5055255;28;20045;-67
2023/04/12 01:44:45;;;;;;;4.50;1.88;;;;;;;-143.48;100.00;118439.88;5054939;28;20044;-67
2023/04/12 01:47:11;;;;;;;3.75;1.73;;;;;;;-143.48;100.00;118439.88;5055252;28;20037;-67
2023/04/12 01:49:54;;;;;;;7.13;1.60;;;;;;;-143.48;100.00;118439.88;5055457;28;20464;-68
2023/04/12 01:52:20;;;;;;;4.70;1.80;;;;;;;-143.48;100.00;118439.88;5055352;28;20112;-68
2023/04/12 01:54:49;;;;;;;8.45;1.88;;;;;;;-143.48;100.00;118439.88;5037378;28;20024;-68
2023/04/12 01:57:17;;;;;;;5.18;1.65;;;;;;;-143.48;99.96;118439.88;5037394;28;20016;-69
2023/04/12 01:59:44;;;;;;;6.15;1.95;;;;;;;-143.48;99.74;118439.88;5055475;28;20115;-68
2023/04/12 02:02:11;;;;;;;4.75;1.85;;;;;;;-143.48;99.43;118439.88;5037014;28;20020;-69
2023/04/12 02:04:38;;;;;;;3.95;1.58;;;;;;;-143.48;99.69;118439.88;5054996;28;20396;-67
2023/04/12 02:07:04;;;;;;;6.72;2.08;;;;;;;-143.48;99.40;118439.88;5037050;28;20119;-68
2023/04/12 02:09:34;;;;;;;6.38;1.70;;;;;;;-143.48;99.44;118439.88;5054956;28;20029;-68
2023/04/12 02:12:00;;;;;;;8.95;2.25;;;;;;;-143.48;100.00;118439.88;5054902;28;20037;-69
2023/04/12 02:14:25;;;;;;;2.08;1.40;;;;;;;-143.48;99.87;118439.88;5054695;28;20365;-66
2023/04/12 02:16:53;;;;;;;4.53;1.90;;;;;;;-143.48;100.00;118439.88;5054931;28;20480;-67
2023/04/12 02:19:19;;;;;;;3.58;1.98;;;;;;;-143.48;100.00;118439.88;5054719;28;20024;-68
2023/04/12 02:21:45;;;;;;;3.55;1.50;;;;;;;-143.48;99.92;118439.88;5054807;28;20472;-68
2023/04/12 02:24:11;;;;;;;5.32;1.70;;;;;;;-143.48;99.91;118439.88;5054693;28;20037;-67
2023/04/12 02:26:37;;;;;;;7.13;2.00;;;;;;;-143.48;100.00;118439.88;5054805;28;20074;-68
2023/04/12 02:29:06;;;;;;;2.95;1.60;;;;;;;-143.48;100.00;118439.88;5054666;28;20095;-68
2023/04/12 02:31:32;;;;;;;8.35;1.92;;;;;;;-143.48;100.00;118439.88;5054509;28;20021;-68
2023/04/12 02:33:57;;;;;;;5.22;1.52;;;;;;;-143.48;100.00;118439.88;5054457;28;20025;-67
2023/04/12 02:36:23;;;;;;;3.97;1.80;;;;;;;-143.48;100.00;118439.88;5054285;28;20063;-67
2023/04/12 02:38:49;;;;;;;4.30;1.60;;;;;;;-143.48;100.00;118439.88;5054483;28;20035;-67
2023/04/12 02:41:18;;;;;;;5.68;1.60;;;;;;;-143.48;100.00;118439.88;5054133;28;20029;-66
2023/04/12 02:43:44;;;;;;;5.68;1.58;;;;;;;-143.48;100.00;118439.88;5036528;28;20025;-68
2023/04/12 02:46:15;;;;;;;4.03;1.55;;;;;;;-143.48;100.00;118439.88;5055915;28;20035;-67
2023/04/12 02:48:40;;;;;;;6.75;1.88;;;;;;;-143.48;100.00;118439.88;5055134;28;20061;-68
2023/04/12 02:51:06;;;;;;;4.80;1.70;;;;;;;-143.48;100.00;118439.88;5054135;28;20079;-68
2023/04/12 02:53:31;;;;;;;5.72;1.70;;;;;;;-143.48;100.00;118439.88;5054016;28;20078;-68
2023/04/12 02:56:00;;;;;;;4.28;1.80;;;;;;;-143.48;100.00;118439.88;5053905;28;20583;-68
2023/04/12 02:58:26;;;;;;;5.53;1.85;;;;;;;-143.48;100.00;118439.88;5035714;28;20021;-66
2023/04/12 03:00:51;;;;;;;4.32;1.60;;;;;;;-143.48;100.00;118439.88;5054071;28;20087;-67
2023/04/12 03:03:16;;;;;;;5.65;1.90;;;;;;;-143.48;100.00;118439.88;5053948;28;20024;-67
2023/04/12 03:05:46;;;;;;;6.20;2.20;;;;;;;-143.48;100.00;118439.88;5053975;28;20461;-67
2023/04/12 03:08:11;;;;;;;6.03;2.03;;;;;;;-143.48;100.00;118439.88;5053742;28;20033;-67
2023/04/12 03:10:36;;;;;;;3.38;1.70;;;;;;;-143.48;100.00;118439.88;5053628;28;20017;-68
2023/04/12 03:13:03;;;;;;;6.20;1.95;;;;;;;-143.48;100.00;118439.88;5035925;28;20114;-67
2023/04/12 03:15:29;;;;;;;6.88;2.10;;;;;;;-143.48;100.00;118439.88;5053762;28;20445;-67
2023/04/12 03:17:54;;;;;;;8.30;2.40;;;;;;;-143.48;100.00;118439.88;5053561;28;20045;-68
2023/04/12 03:20:23;;;;;;;4.43;1.80;;;;;;;-143.48;100.00;118439.88;5053691;28;20025;-68
2023/04/12 03:22:48;;;;;;;6.03;1.88;;;;;;;-143.48;100.00;118439.88;5053696;28;20027;-68
2023/04/12 03:25:14;;;;;;;4.85;1.98;;;;;;;-143.48;100.00;118439.88;5053369;28;20017;-67
2023/04/12 03:27:39;;;;;;;4.38;1.92;;;;;;;-143.48;100.00;118439.88;5053385;28;20035;-68
2023/04/12 03:30:05;;;;;;;4.35;1.80;;;;;;;-143.48;100.00;118439.88;5053486;28;20029;-68
2023/04/12 03:32:31;;;;;;;5.10;1.83;;;;;;;-143.48;100.00;118439.88;5053658;28;20060;-69
2023/04/12 03:34:56;;;;;;;8.48;2.10;;;;;;;-143.48;100.00;118439.88;5053355;28;20055;-68
2023/04/12 03:37:22;;;;;;;3.55;1.60;;;;;;;-143.48;100.00;118439.88;5053490;28;20027;-69
2023/04/12 03:39:47;;;;;;;4.40;1.85;;;;;;;-143.48;100.00;118439.88;5053373;28;20032;-68
2023/04/12 03:42:13;;;;;;;7.63;2.00;;;;;;;-143.48;100.00;118439.88;5053199;28;20500;-68
2023/04/12 03:44:38;;;;;;;7.15;1.80;;;;;;;-143.48;100.00;118439.88;5053142;28;20484;-68
2023/04/12 03:47:04;;;;;;;4.40;1.67;;;;;;;-143.48;100.00;118439.88;5053227;28;20075;-68
2023/04/12 03:49:29;;;;;;;6.28;1.77;;;;;;;-143.48;100.00;118439.88;5053555;28;20373;-69
2023/04/12 03:51:55;;;;;;;3.55;1.58;;;;;;;-143.48;100.00;118439.88;5053317;28;20025;-68
2023/04/12 03:54:21;;;;;;;7.43;2.03;;;;;;;-143.48;100.00;118439.88;5035259;28;20021;-68
2023/04/12 03:56:47;;;;;;;5.30;1.70;;;;;;;-143.48;100.00;118439.88;5035428;28;20028;-67
2023/04/12 03:59:13;;;;;;;5.63;2.03;;;;;;;-143.48;100.00;118439.88;5053108;28;20025;-68
2023/04/12 04:01:40;;;;;;;7.97;2.00;;;;;;;-143.48;100.00;118439.88;5052905;28;20098;-68
2023/04/12 04:04:06;;;;;;;6.72;2.20;;;;;;;-143.48;100.00;118439.88;5052970;28;20506;-67
2023/04/12 04:06:33;;;;;;;3.40;1.73;;;;;;;-143.48;100.00;118439.88;5052979;28;20128;-68
2023/04/12 04:08:58;;;;;;;3.42;1.92;;;;;;;-143.48;100.00;118439.88;5055615;28;20028;-68
2023/04/12 04:11:24;;;;;;;5.75;1.90;;;;;;;-143.48;100.00;118439.88;5057150;28;20028;-67
2023/04/12 04:13:50;;;;;;;4.45;2.03;;;;;;;-143.48;100.00;118439.88;5057127;28;20098;-67
2023/04/12 04:16:16;;;;;;;5.68;1.95;;;;;;;-143.48;100.00;118439.88;5057167;28;20053;-67
2023/04/12 04:18:42;;;;;;;5.97;1.95;;;;;;;-143.48;100.00;118439.88;5056910;28;20028;-68
2023/04/12 04:21:07;;;;;;;4.72;1.73;;;;;;;-143.48;100.00;118439.88;5039149;28;20025;-68
2023/04/12 04:23:43;;;;;;;4.97;2.00;;;;;;;-143.48;100.00;118439.88;5056853;28;20032;-68
2023/04/12 04:26:09;;;;;;;4.53;1.73;;;;;;;-143.48;100.00;118439.88;5056862;28;20024;-68
2023/04/12 04:28:36;;;;;;;3.90;1.90;;;;;;;-143.48;100.00;118439.88;5038854;28;20103;-66
2023/04/12 04:31:05;;;;;;;5.85;2.20;;;;;;;-143.48;100.00;118439.88;5038912;28;20032;-67
2023/04/12 04:33:31;;;;;;;4.93;2.00;;;;;;;-143.48;100.00;118439.88;5056971;28;20078;-67
2023/04/12 04:35:56;;;;;;;2.55;1.70;;;;;;;-143.48;100.00;118439.88;5056730;28;20028;-67
2023/04/12 04:38:24;;;;;;;3.72;1.75;;;;;;;-143.48;100.00;118439.88;5056740;28;20017;-67
2023/04/12 04:40:52;;;;;;;2.63;1.70;;;;;;;-143.48;100.00;118439.88;5056588;28;20029;-68
2023/04/12 04:43:18;;;;;;;3.38;1.60;;;;;;;-143.48;100.00;118439.88;5056532;28;20049;-67
2023/04/12 04:45:49;;;;;;;3.70;1.67;;;;;;;-143.48;100.00;118439.88;5056761;28;20021;-67
2023/04/12 04:48:15;;;;;;;4.72;2.17;;;;;;;-143.48;100.00;118439.88;5056418;28;20029;-67
2023/04/12 04:50:40;;;;;;;4.90;1.90;;;;;;;-143.48;100.00;118439.88;5067716;28;20032;-69
2023/04/12 04:53:06;;;;;;;4.90;1.83;;;;;;;-143.48;100.00;118439.88;5074793;28;20024;-68
2023/04/12 04:55:31;;;;;;;3.35;1.83;;;;;;;-143.48;100.00;118439.88;5043153;28;20435;-68
2023/04/12 04:57:57;;;;;;;3.20;1.80;;;;;;;-143.48;100.00;118439.88;5056275;28;20013;-67
2023/04/12 05:00:24;;;;;;;5.72;1.80;;;;;;;-143.48;100.00;118439.88;5038483;28;20017;-68
2023/04/12 05:02:50;;;;;;;2.22;1.55;;;;;;;-143.48;100.00;118439.88;5057786;28;20078;-69
2023/04/12 05:05:16;;;;;;;5.90;1.60;;;;;;;-143.48;100.00;118439.88;5056866;28;20473;-67
2023/04/12 05:07:44;;;;;;;4.63;1.80;;;;;;;-143.48;100.00;118439.88;5056285;28;20071;-68
2023/04/12 05:10:10;;;;;;;3.97;1.73;;;;;;;-143.48;100.00;118439.88;5048378;28;20033;-70
2023/04/12 05:12:36;;;;;;;5.03;1.85;;;;;;;-143.48;100.00;118439.88;5062297;28;20523;-68
2023/04/12 05:15:02;;;;;;;7.72;2.15;;;;;;;-143.48;100.00;118439.88;5056400;28;20059;-68
2023/04/12 05:17:28;;;;;;;5.00;1.70;;;;;;;-143.48;100.00;118439.88;5056189;28;20020;-68
2023/04/12 05:19:53;;;;;;;2.50;1.80;;;;;;;-143.48;100.00;118439.88;5055048;28;20036;-67
2023/04/12 05:22:21;;;;;;;3.90;1.90;;;;;;;-143.48;100.00;118439.88;5055812;28;20025;-67
2023/04/12 05:24:47;;;;;;;5.78;1.92;;;;;;;-143.48;100.00;118439.88;5056233;28;20427;-67
2023/04/12 05:27:15;;;;;;;4.20;1.92;;;;;;;-143.48;100.00;118439.88;5055897;28;20104;-67
2023/04/12 05:29:40;;;;;;;2.97;1.83;;;;;;;-143.48;100.00;118439.88;5055710;28;20055;-67
2023/04/12 05:32:06;;;;;;;4.57;1.98;;;;;;;-143.48;100.00;118439.88;5055821;28;20021;-68
2023/04/12 05:34:31;;;;;;;4.05;2.20;;;;;;;-143.48;100.00;118439.88;5055836;28;20031;-66
2023/04/12 05:36:58;;;;;;;4.38;2.05;;;;;;;-143.48;100.00;118439.88;5056541;28;20045;-68
2023/04/12 05:39:23;;;;;;;6.88;2.53;;;;;;;-143.48;100.00;118439.88;5037739;28;20032;-67
2023/04/12 05:41:48;;;;;;;3.17;2.10;;;;;;;-143.48;100.00;118439.88;5055299;28;20465;-67
2023/04/12 05:44:14;;;;;;;3.22;2.30;;;;;;;-143.48;100.00;118439.88;5055396;28;20036;-67
2023/04/12 05:46:39;;;;;;;3.47;2.30;;;;;;;-143.48;100.00;118439.88;5055252;28;20374;-68
2023/04/12 05:49:05;;;;;;;3.40;2.30;;;;;;;-143.48;100.00;118439.88;5055318;28;20032;-67
2023/04/12 05:51:30;;;;;;;5.88;2.63;;;;;;;-143.48;100.00;118439.88;5055429;28;20361;-67
2023/04/12 05:53:56;;;;;;;6.28;2.80;;;;;;;-143.48;100.00;118439.88;5055669;28;20029;-68
2023/04/12 05:56:21;;;;;;;4.43;2.70;;;;;;;-143.48;100.00;118439.88;5055327;28;20103;-67
2023/04/12 05:58:47;;;;;;;4.47;2.80;;;;;;;-143.48;100.00;118439.88;5055295;28;20024;-67
2023/04/12 06:01:15;;;;;;;3.90;2.60;;;;;;;-143.48;100.00;118439.88;5055151;28;20107;-68
2023/04/12 06:03:42;;;;;;;5.20;2.60;;;;;;;-143.48;100.00;118439.88;5055055;28;20033;-68
2023/04/12 06:06:07;;;;;;;3.95;2.65;;;;;;;-143.48;100.00;118439.88;5055119;28;20021;-68
2023/04/12 06:08:33;;;;;;;4.38;2.72;;;;;;;-143.48;100.00;118439.88;5037023;28;20033;-68
2023/04/12 06:10:58;;;;;;;3.38;2.60;;;;;;;-143.48;100.00;118439.88;5037225;28;20112;-68
2023/04/12 06:13:23;;;;;;;4.43;2.95;;;;;;;-143.48;100.00;118439.88;5063549;28;20039;-70
2023/04/12 06:15:49;;;;;;;6.78;2.88;;;;;;;-143.48;100.00;118439.88;5058518;28;20106;-67
2023/04/12 06:18:14;;;;;;;4.88;3.08;;;;;;;-143.48;100.00;118439.88;5036759;28;20024;-68
2023/04/12 06:20:40;;;;;;;5.85;2.80;;;;;;;-143.48;100.00;118439.88;5054840;28;20043;-67
2023/04/12 06:23:05;;;;;;;5.53;3.10;;;;;;;-143.48;100.00;118439.88;5054730;28;20101;-68
2023/04/12 06:25:32;;;;;;;6.78;2.70;;;;;;;-143.48;100.00;118439.88;5053844;28;20503;-67
2023/04/12 06:27:57;;;;;;;4.35;2.95;;;;;;;-143.48;100.00;118439.88;5054596;28;20513;-67
2023/04/12 06:30:23;;;;;;;3.80;2.85;;;;;;;-143.48;100.00;118439.88;5054592;28;20108;-67
2023/04/12 06:32:48;;;;;;;8.57;3.00;;;;;;;-143.48;100.00;118439.88;5055538;28;20115;-67
2023/04/12 06:35:14;;;;;;;14.13;3.10;;;;;;;-143.48;100.00;118439.88;5055471;28;20045;-66
2023/04/12 06:37:39;;;;;;;5.85;3.20;;;;;;;-143.48;100.00;118439.88;5036666;28;20499;-67
2023/04/12 06:40:05;;;;;;;8.07;3.60;;;;;;;-143.48;100.00;118439.88;5058191;28;20096;-68
2023/04/12 06:42:30;;;;;;;8.13;3.70;;;;;;;-143.48;100.00;118439.88;5054628;28;20055;-68
2023/04/12 06:44:56;;;;;;;6.45;3.38;;;;;;;-143.48;100.00;118439.88;5054341;28;20092;-68
2023/04/12 06:47:21;;;;;;;8.00;3.50;;;;;;;-143.48;100.00;118439.88;5055683;28;20078;-69
2023/04/12 06:49:47;;;;;;;8.90;3.50;;;;;;;-143.48;100.00;118439.88;5053942;28;20393;-68
2023/04/12 06:52:12;;;;;;;11.73;3.90;;;;;;;-143.48;100.00;118439.88;5054067;28;20028;-68
2023/04/12 06:54:38;;;;;;;9.00;5.07;;;;;;;-143.48;100.00;118439.88;5053449;28;20147;-68
2023/04/12 06:57:09;;;;;;;8.45;3.75;;;;;;;-143.48;100.00;118439.88;5035960;28;20021;-68
2023/04/12 06:59:35;;;;;;;12.80;4.40;;;;;;;-143.48;100.00;118439.88;5053416;28;20021;-67
2023/04/12 07:02:00;;;;;;;10.02;4.15;;;;;;;-143.48;100.00;118439.88;5056618;28;20028;-67
2023/04/12 07:04:25;;;;;;;8.63;4.18;;;;;;;-143.48;100.00;118439.88;5053731;28;20045;-67
2023/04/12 07:06:50;;;;;;;10.65;4.05;;;;;;;-143.48;100.00;118439.88;5057610;28;20036;-68
2023/04/12 07:09:16;;;;;;;7.47;4.00;;;;;;;-143.48;100.00;118439.88;5053990;28;20431;-68
2023/04/12 07:11:42;;;;;;;11.02;3.70;;;;;;;-143.48;100.00;118439.88;5054004;28;20460;-68
2023/04/12 07:14:07;;;;;;;12.45;4.30;;;;;;;-143.48;100.00;118439.88;5035936;28;20056;-68
2023/04/12 07:16:32;;;;;;;9.15;3.75;;;;;;;-143.48;100.00;118439.88;5053838;28;20028;-68
2023/04/12 07:18:59;;;;;;;8.23;3.53;;;;;;;-143.48;100.00;118439.88;5053728;28;20025;-69
2023/04/12 07:21:24;;;;;;;7.65;3.60;;;;;;;-143.48;100.00;118439.88;5054841;28;20035;-67
2023/04/12 07:23:50;;;;;;;8.73;3.83;;;;;;;-143.48;100.00;118439.88;5054315;28;20469;-67
2023/04/12 07:26:17;;;;;;;9.98;4.00;;;;;;;-143.48;100.00;118439.88;5038630;28;20028;-68
2023/04/12 07:28:42;;;;;;;10.98;4.00;;;;;;;-143.48;100.00;118439.88;5056423;28;20090;-67
2023/04/12 07:31:07;;;;;;;12.30;4.28;;;;;;;-143.48;100.00;118439.88;5053579;28;20021;-68
2023/04/12 07:33:34;;;;;;;15.88;4.35;;;;;;;-143.48;100.00;118439.88;5036000;28;20057;-67
2023/04/12 07:36:00;;;;;;;10.30;3.92;;;;;;;-143.48;100.00;118439.88;5053041;28;20029;-68
2023/04/12 07:38:26;;;;;;;11.35;4.57;;;;;;;-143.48;100.00;118439.88;5052881;28;20103;-67
2023/04/12 07:40:51;;;;;;;14.45;4.20;;;;;;;-143.48;100.00;118439.88;5035632;28;20074;-67
2023/04/12 07:43:17;;;;;;;11.00;4.60;;;;;;;-143.48;100.00;118439.88;5053408;28;20416;-67
2023/04/12 07:45:43;;;;;;;11.75;4.50;;;;;;;-143.48;100.00;118439.88;5041024;28;20488;-67
2023/04/12 07:48:09;;;;;;;14.95;4.35;;;;;;;-143.48;100.00;118439.88;5044343;28;20069;-68
2023/04/12 07:50:34;;;;;;;19.92;4.70;;;;;;;-143.48;100.00;118439.88;5054908;28;20108;-67
2023/04/12 07:53:21;;;;;;;14.75;4.70;;;;;;;-143.48;100.00;118439.88;5037846;28;20032;-68
2023/04/12 07:55:46;;;;;;;14.57;4.90;;;;;;;-143.48;100.00;118439.88;5055325;28;20043;-67
2023/04/12 07:58:11;;;;;;;16.15;4.25;;;;;;;-143.48;99.91;118439.88;5055027;28;20104;-67
2023/04/12 08:00:37;;;;;;;14.57;4.18;;;;;;;-143.48;98.99;118439.88;5056376;28;20380;-66
2023/04/12 08:03:02;;;;;;;20.27;4.03;;;;;;;-143.48;97.65;118439.88;5055298;28;20029;-67
2023/04/12 08:05:27;;;;;;;11.77;3.97;;;;;;;-143.48;96.72;118439.88;5038043;28;20056;-66
2023/04/12 08:07:53;;;;;;;14.35;3.83;;;;;;;-143.48;96.24;118439.88;5062381;28;20021;-67
2023/04/12 08:10:18;;;;;;;19.00;4.20;;;;;;;-143.48;96.31;118439.88;5056503;28;20349;-67
2023/04/12 08:12:44;;;;;;;21.55;4.30;;;;;;;-143.48;95.32;118439.88;5056773;28;20460;-67
2023/04/12 08:15:09;;;;;;;13.40;3.67;;;;;;;-143.48;95.42;118439.88;5038360;28;20079;-67
2023/04/12 08:17:35;;;;;;;21.38;4.20;;;;;;;-143.48;93.91;118439.88;5038644;28;20055;-67
2023/04/12 08:20:00;;;;;;;18.05;3.55;;;;;;;-143.48;91.85;118439.88;5038568;28;20020;-66
2023/04/12 08:22:26;;;;;;;16.83;3.60;;;;;;;-143.48;90.53;118439.88;5056291;28;20104;-67
2023/04/12 08:24:51;;;;;;;12.13;3.60;;;;;;;-143.48;86.21;118439.88;5057179;28;20052;-67
2023/04/12 08:27:17;;;;;;;17.77;4.43;;;;;;;-143.48;82.44;118439.88;5056780;28;20376;-67
2023/04/12 08:29:42;;;;;;;18.63;3.03;;;;;;;-143.48;73.83;118439.88;5057753;28;20080;-67
2023/04/12 08:32:10;;;;;;;15.32;2.97;;;;;;;-143.48;72.58;118439.88;5056911;28;20032;-67
2023/04/12 08:34:36;;;;;;;13.60;3.35;;;;;;;-143.48;67.69;118439.88;5056899;28;20084;-67
2023/04/12 08:37:01;;;;;;;17.20;3.28;;;;;;;-143.48;73.17;118439.88;5057324;28;20098;-67
2023/04/12 08:39:27;;;;;;;21.92;3.80;;;;;;;-143.48;71.09;118439.88;5057706;28;20017;-68
2023/04/12 08:41:54;;;;;;;20.05;3.47;;;;;;;-143.48;75.06;118439.88;5056282;28;20075;-68
2023/04/12 08:44:32;;;;;;;19.27;3.60;;;;;;;-143.48;72.77;118439.88;5057033;28;20041;-68
2023/04/12 08:46:58;;;;;;;23.92;3.40;;;;;;;-143.48;75.18;118439.88;5062995;28;20051;-68
2023/04/12 08:49:23;;;;;;;27.55;3.17;;;;;;;-143.48;68.87;118439.88;5047279;28;20021;-66
2023/04/12 08:51:52;;;;;;;22.30;3.40;;;;;;;-143.48;69.78;118439.88;5054521;28;20032;-67
2023/04/12 08:54:18;;;;;;;19.38;3.22;;;;;;;-143.48;70.72;118439.88;5053649;28;20029;-68
2023/04/12 08:56:44;;;;;;;16.80;2.97;;;;;;;-143.48;69.14;118439.88;5057258;28;20023;-68
2023/04/12 08:59:11;;;;;;;25.73;3.20;;;;;;;-143.48;69.70;118439.88;5057302;28;20025;-68
2023/04/12 09:01:40;;;;;;;23.75;3.42;;;;;;;-143.48;69.20;118439.88;5056929;28;20116;-69
2023/04/12 09:04:05;;;;;;;16.90;3.08;;;;;;;-143.48;70.47;118439.88;5056572;28;20024;-68
2023/04/12 09:06:31;;;;;;;21.33;3.22;;;;;;;-143.48;68.28;118439.88;5056692;28;20032;-68
2023/04/12 09:08:56;;;;;;;20.30;3.55;;;;;;;-143.48;69.85;118439.88;5056349;28;20017;-68
2023/04/12 09:11:27;;;;;;;17.98;3.17;;;;;;;-143.48;67.94;118439.88;5056456;28;20029;-67
2023/04/12 09:13:53;;;;;;;22.98;3.65;;;;;;;-143.48;69.73;118439.88;5037021;28;20176;-68
2023/04/12 09:16:39;;;;;;;27.75;3.72;;;;;;;-143.48;71.82;118439.88;5055351;28;20021;-68
2023/04/12 09:19:04;;;;;;;21.30;3.63;;;;;;;-143.48;68.03;118439.88;5055359;28;20028;-67
2023/04/12 09:21:33;;;;;;;22.92;3.50;;;;;;;-143.48;67.52;118439.88;5056564;28;20040;-68
2023/04/12 09:24:11;;;;;;;17.65;3.28;;;;;;;-143.48;66.88;118439.88;5037148;28;20486;-68
2023/04/12 09:26:37;;;;;;;19.33;2.72;;;;;;;-143.48;63.97;118439.88;5054670;28;20033;-68
2023/04/12 09:29:03;;;;;;;21.45;3.70;;;;;;;-143.48;64.63;118439.88;5037519;28;20475;-68
2023/04/12 09:31:29;;;;;;;19.80;2.97;;;;;;;-143.48;63.18;118439.88;5056235;28;20028;-68
2023/04/12 09:34:14;;;;;;;19.75;3.38;;;;;;;-143.48;61.03;118439.88;5055829;28;20024;-68
2023/04/12 09:36:40;;;;;;;15.32;3.20;;;;;;;-143.48;60.22;118439.88;5055123;28;20033;-67
2023/04/12 09:39:07;;;;;;;19.30;3.58;;;;;;;-143.48;61.55;118439.88;5037564;28;20346;-68
2023/04/12 09:41:32;;;;;;;18.88;3.22;;;;;;;-143.48;61.61;118439.88;5055366;28;20056;-68
2023/04/12 09:44:01;;;;;;;18.40;3.40;;;;;;;-143.48;63.82;118439.88;5055719;28;20464;-67
2023/04/12 09:46:27;;;;;;;18.13;3.15;;;;;;;-143.48;62.33;118439.88;5055742;28;20031;-68
2023/04/12 09:48:54;;;;;;;12.15;2.75;;;;;;;-143.48;60.75;118439.88;5055876;28;20029;-68
2023/04/12 09:51:24;;;;;;;17.98;3.15;;;;;;;-143.48;58.52;118439.88;5055752;28;20357;-68
2023/04/12 09:53:51;;;;;;;19.45;3.25;;;;;;;-143.48;61.39;118439.88;5055781;28;20028;-68
2023/04/12 09:56:19;;;;;;;18.52;3.10;;;;;;;-143.48;58.28;118439.88;5037800;28;20021;-68
2023/04/12 09:58:46;;;;;;;17.15;3.45;;;;;;;-143.48;58.90;118439.88;5055698;28;20025;-66
2023/04/12 10:01:12;;;;;;;18.40;3.40;;;;;;;-143.48;59.32;118439.88;5056051;28;20020;-67
2023/04/12 10:03:38;;;;;;;19.38;3.13;;;;;;;-143.48;59.21;118439.88;5055745;28;20432;-69
2023/04/12 10:06:04;;;;;;;18.67;3.38;;;;;;;-143.48;62.00;118439.88;5055347;28;20096;-68
2023/04/12 10:08:30;;;;;;;15.07;3.22;;;;;;;-143.48;62.41;118439.88;5055613;28;20112;-68
2023/04/12 10:10:57;;;;;;;22.33;3.10;;;;;;;-143.48;61.20;118439.88;5055643;28;20032;-67
2023/04/12 10:13:24;;;;;;;14.98;2.83;;;;;;;-143.48;60.64;118439.88;5058172;28;20021;-67
2023/04/12 10:15:51;;;;;;;22.70;3.45;;;;;;;-143.48;60.43;118439.88;5058076;28;20080;-67
2023/04/12 10:18:17;;;;;;;15.73;2.90;;;;;;;-143.48;63.38;118439.88;5039365;28;20048;-68
2023/04/12 10:20:45;;;;;;;18.80;3.70;;;;;;;-143.48;60.03;118439.88;5040805;28;20380;-66
2023/04/12 10:23:11;;;;;;;16.88;2.95;;;;;;;-143.48;60.27;118439.88;5058242;28;20459;-68
2023/04/12 10:25:39;;;;;;;20.02;2.78;;;;;;;-143.48;59.47;118439.88;5055019;28;20056;-68
2023/04/12 10:28:16;;;;;;;18.50;3.05;;;;;;;-143.48;61.61;118439.88;5037168;28;20025;-68
2023/04/12 10:30:41;;;;;;;17.10;3.00;;;;;;;-143.48;61.37;118439.88;5055271;28;20074;-68
2023/04/12 10:33:15;;;;;;;16.50;3.25;;;;;;;-143.48;58.90;118439.88;5055141;28;20353;-69
2023/04/12 10:35:47;;;;;;;19.83;2.83;;;;;;;-143.48;63.82;118439.88;5037864;28;20437;-68
2023/04/12 10:38:12;;;;;;;18.45;3.17;;;;;;;-143.48;58.18;118439.88;5054971;28;20021;-68
2023/04/12 10:41:14;;;;;;;17.73;2.95;;;;;;;-143.48;53.66;118439.88;5054920;28;20025;-67
2023/04/12 10:43:41;;;;;;;20.48;3.25;;;;;;;-143.48;52.14;118439.88;5053889;28;20033;-68
2023/04/12 10:46:07;;;;;;;18.23;3.20;;;;;;;-143.48;55.42;118439.88;5036340;28;20035;-68
2023/04/12 10:48:37;;;;;;;19.95;2.92;;;;;;;-143.48;53.45;118439.88;5054417;28;20104;-68
2023/04/12 10:51:24;;;;;;;18.88;3.03;;;;;;;-143.48;56.19;118439.88;5054262;28;20100;-68
2023/04/12 10:53:50;;;;;;;21.17;3.80;;;;;;;-143.48;58.76;118439.88;5053847;28;20346;-67
2023/04/12 10:56:30;;;;;;;17.08;2.95;;;;;;;-143.48;60.94;118439.88;5054202;28;20361;-68
2023/04/12 10:58:58;;;;;;;20.73;3.30;;;;;;;-143.48;57.64;118439.88;5036910;28;20456;-68
2023/04/12 11:01:24;;;;;;;11.27;2.60;;;;;;;-143.48;55.97;118439.88;5036342;28;20075;-68